Amstetten, Austria

9:02 PM CEST on October 23, 2014 (GMT +0200)
Wallsee an der Donau | Change Station
CLOSE
Current Station
Personal Weather Station
Location: Wallsee, NIEDERöSTERREICH
Elevation: 902 ft
Nearby Weather Stations
Active Advisory: Rain english:

Elev 902 ft 48.16 °N, 14.72 °E | Updated 18 seconds ago

Mostly Cloudy
Mostly Cloudy
51.4 °F
Feels Like 51.4 °F
N
1.8
Wind Variable Wind from WNW
Gusts 2.5 mph

Today
High -- | Low -- °F
--% Chance of Precip.
Yesterday
High -- | Low -- °F
Precip. -- in
7:31 AM 5:57 PM
Waning Crescent, 0% visible
Pressure 30.15 in
Visibility 6.2 miles
Clouds Mostly Cloudy 3200 ft
Mostly Cloudy 3800 ft
Dew Point 48 °F
Humidity 86%
Rainfall 0.41 in
Snow Depth Not available.
UV 0.0 out of 12
Pollen Not available.
Air Quality Not available.
Flu Activity Not available.
METAR LOWL 231850Z 26011KT 9999 BKN032 BKN038 10/08 Q1021 NOSIG

More Conditions Fewer Conditions

Pressure 30.15 in
Visibility 6.2 miles
Clouds Mostly Cloudy 3200 ft
Mostly Cloudy 3800 ft
Dew Point 48 °F
Humidity 86%
Rainfall 0.41 in
Snow Depth Not available.
UV 0.0 out of 12
Pollen Not available.
Air Quality Not available.
Flu Activity Not available.
METAR LOWL 231850Z 26011KT 9999 BKN032 BKN038 10/08 Q1021 NOSIG

More Conditions Fewer Conditions

10-Day Weather Forecast

Almanac

Astronomy

Oct. 23, 2014 Rise Set
Actual Time 7:31 AM CEST 5:57 PM CEST
Civil Twilight 6:59 AM CEST 6:29 PM CEST
Nautical Twilight 6:23 AM CEST 7:05 PM CEST
Astronomical Twilight 5:47 AM CEST 7:41 PM CEST
Moon 6:51 AM CEST 5:49 PM CEST
Length of Visible Light 11h 29m
Length of Day
10h 25m
Tomorrow will be 3m 18s shorter.
Waning Crescent, 0% of the Moon is Illuminated
Today
Waning Crescent
Oct 23
New
Oct 30
First Quarter
Nov 6
Full
Nov 14
Last Quarter

Today's Extremes

Country Highs Country Lows

Community

WunderPhotos

Upload Photos

1,764,341 photos uploaded!

WunderBlogs® & News

By Dr. Jeff Masters
Director of Meteorology, Weather Underground
By Kari Strenfel
Meteorologist, Weather Underground
By Christopher C. Burt
Weather Historian, Weather Underground
October 23, 2014
October 23, 2014
October 23, 2014

Nearby

Snow Depth

Not available.

Earthquake Activity

City Distance Mag. Time & Date
No recent earthquake activity has been reported nearby.
Minimum magnitude displayed is 2.5.

Coastal Water Temperatures

Place Temperature
No Stations Reporting

Nearby Weather Stations